CheckWX is a tool to help pilots better visualize weather data.  It is not intended as a substitute for an official pre-flight weather briefing.

14:52:09 UTC

KDUG TAF
Bisbee Douglas International Airport
Douglas Bisbee, Arizona, USA
KDUG 231127Z 2312/2412 VRB04KT P6SM FEW250 FM232100 26012G19KT P6SM FEW250 FM240300 32009KT P6SM SCT250

Mar-23@
12:00 UTC

Mar-23 @ 12:00 UTC

Mar-23@
21:00 UTC

Mar-23 @ 21:00 UTC

KDUG 231127Z 2312/2412 VRB04KT P6SM FEW250
Wind
  • Variable at 4 KTS
Cloud Levels
  • Few at 25,000' AGL

Mar-23@
21:00 UTC

Mar-23 @ 21:00 UTC

Mar-24@
03:00 UTC

Mar-24 @ 03:00 UTC

FM232100 26012G19KT P6SM FEW250

From

From Standard forecast or significant change

Wind
  • 260° at 12 KTS
  • {Gusting to 19 KTS
Cloud Levels
  • Few at 25,000' AGL

Mar-24@
03:00 UTC

Mar-24 @ 03:00 UTC

Mar-24@
12:00 UTC

Mar-24 @ 12:00 UTC

FM240300 32009KT P6SM SCT250

From

From Standard forecast or significant change

Wind
  • 320° at 9 KTS
Cloud Levels
  • Scattered at 25,000' AGL